createdAt,value
2024-05-09T00:00:18.195Z,0.00
2024-05-09T00:01:11.853Z,0.00
2024-05-09T00:02:11.870Z,0.00
2024-05-09T00:03:12.429Z,0.00
2024-05-09T00:04:11.935Z,0.00
2024-05-09T00:05:12.036Z,0.00
2024-05-09T00:06:12.037Z,0.00
2024-05-09T00:07:12.012Z,0.00
2024-05-09T00:08:12.463Z,0.00
2024-05-09T00:09:12.089Z,0.00
2024-05-09T00:10:22.062Z,0.00
2024-05-09T00:11:12.219Z,0.00
2024-05-09T00:12:12.228Z,0.00
2024-05-09T00:13:12.199Z,0.00
2024-05-09T00:14:12.325Z,0.00
2024-05-09T00:15:12.268Z,0.00
2024-05-09T00:16:12.283Z,0.00
2024-05-09T00:17:12.414Z,0.00
2024-05-09T00:18:12.463Z,0.00
2024-05-09T00:19:12.547Z,0.00
2024-05-09T00:20:17.928Z,0.00
2024-05-09T00:21:12.501Z,0.00
2024-05-09T00:22:12.464Z,0.00
2024-05-09T00:23:13.409Z,0.00
2024-05-09T00:24:12.625Z,0.00
2024-05-09T00:25:12.600Z,0.00
2024-05-09T00:26:12.739Z,0.00
2024-05-09T00:27:13.446Z,0.00
2024-05-09T00:28:13.074Z,0.00
2024-05-09T00:29:12.844Z,0.00
2024-05-09T00:30:17.840Z,0.00
2024-05-09T00:31:12.802Z,0.00
2024-05-09T00:32:13.024Z,0.00
2024-05-09T00:33:13.134Z,0.00
2024-05-09T00:34:12.995Z,0.00
2024-05-09T00:35:12.956Z,0.00
2024-05-09T00:36:13.001Z,0.00
2024-05-09T00:37:12.997Z,0.00
2024-05-09T00:38:13.126Z,0.00
2024-05-09T00:39:13.069Z,0.00
2024-05-09T00:40:22.415Z,0.00
2024-05-09T00:41:14.585Z,0.00
2024-05-09T00:42:13.211Z,0.00
2024-05-09T00:43:14.519Z,0.00
2024-05-09T00:44:13.388Z,0.00
2024-05-09T00:45:13.271Z,0.00
2024-05-09T00:46:13.332Z,0.00
2024-05-09T00:47:13.550Z,0.00
2024-05-09T00:48:16.167Z,0.00
2024-05-09T00:49:13.484Z,0.00
2024-05-09T00:50:19.252Z,0.00
2024-05-09T00:51:13.568Z,0.00
2024-05-09T00:52:13.516Z,0.00
2024-05-09T00:53:13.623Z,0.00
2024-05-09T00:54:13.570Z,0.00
2024-05-09T00:55:13.608Z,0.00
2024-05-09T00:56:13.711Z,0.00
2024-05-09T00:57:13.702Z,0.00
2024-05-09T00:58:13.706Z,0.00
2024-05-09T00:59:13.774Z,0.00
2024-05-09T01:00:22.622Z,0.00
2024-05-09T01:01:13.842Z,0.00
2024-05-09T01:02:14.007Z,0.00
2024-05-09T01:03:14.582Z,0.00
2024-05-09T01:04:13.981Z,0.00
2024-05-09T01:05:13.998Z,0.00
2024-05-09T01:06:13.959Z,0.00
2024-05-09T01:07:14.016Z,0.00
2024-05-09T01:08:14.067Z,0.00
2024-05-09T01:09:14.060Z,0.00
2024-05-09T01:10:20.933Z,0.00
2024-05-09T01:11:14.338Z,0.00
2024-05-09T01:12:14.413Z,0.00
2024-05-09T01:13:14.268Z,0.00
2024-05-09T01:14:14.263Z,0.00
2024-05-09T01:15:14.297Z,0.00
2024-05-09T01:16:14.319Z,0.00
2024-05-09T01:17:14.373Z,0.00
2024-05-09T01:18:14.673Z,0.00
2024-05-09T01:19:14.761Z,0.00
2024-05-09T01:20:20.186Z,0.00
2024-05-09T01:21:14.672Z,0.00
2024-05-09T01:22:14.505Z,0.00
2024-05-09T01:23:16.212Z,0.00
2024-05-09T01:24:14.567Z,0.00
2024-05-09T01:25:14.618Z,0.00
2024-05-09T01:26:14.749Z,0.00
2024-05-09T01:27:14.700Z,0.00
2024-05-09T01:28:14.721Z,0.00
2024-05-09T01:29:14.884Z,0.00
2024-05-09T01:30:20.809Z,0.00
2024-05-09T01:31:14.806Z,0.00
2024-05-09T01:32:15.121Z,0.00
2024-05-09T01:33:15.084Z,0.00
2024-05-09T01:34:14.995Z,0.00
2024-05-09T01:35:14.934Z,0.00
2024-05-09T01:36:15.059Z,0.00
2024-05-09T01:37:15.033Z,0.00
2024-05-09T01:38:15.084Z,0.00
2024-05-09T01:39:15.120Z,0.00
2024-05-09T01:40:18.719Z,0.00
2024-05-09T01:41:15.173Z,0.00
2024-05-09T01:42:15.191Z,0.00
2024-05-09T01:43:15.224Z,0.00
2024-05-09T01:44:15.288Z,0.00
2024-05-09T01:45:15.288Z,0.00
2024-05-09T01:46:15.328Z,0.00
2024-05-09T01:47:15.731Z,0.00
2024-05-09T01:48:15.528Z,0.00
2024-05-09T01:49:15.605Z,0.00
2024-05-09T01:50:16.647Z,0.00
2024-05-09T01:51:15.589Z,0.00
2024-05-09T01:52:15.517Z,0.00
2024-05-09T01:53:15.682Z,0.00
2024-05-09T01:54:15.588Z,0.00
2024-05-09T01:55:15.601Z,0.00
2024-05-09T01:56:15.744Z,0.00
2024-05-09T01:57:15.674Z,0.00
2024-05-09T01:58:15.758Z,0.00
2024-05-09T01:59:15.733Z,0.00
2024-05-09T02:00:22.233Z,0.00
2024-05-09T02:01:15.823Z,0.00
2024-05-09T02:02:16.003Z,0.00
2024-05-09T02:03:17.813Z,0.00
2024-05-09T02:04:16.698Z,0.00
2024-05-09T02:05:16.214Z,0.00
2024-05-09T02:06:16.007Z,0.00
2024-05-09T02:07:16.003Z,0.00
2024-05-09T02:08:16.260Z,0.00
2024-05-09T02:09:16.060Z,0.00
2024-05-09T02:10:20.503Z,0.00
2024-05-09T02:11:16.291Z,0.00
2024-05-09T02:12:16.427Z,0.00
2024-05-09T02:13:16.808Z,0.00
2024-05-09T02:14:16.285Z,0.00
2024-05-09T02:15:16.306Z,0.00
2024-05-09T02:16:16.299Z,0.00
2024-05-09T02:17:16.505Z,0.00
2024-05-09T02:18:16.591Z,0.00
2024-05-09T02:19:16.666Z,0.00
2024-05-09T02:20:23.128Z,0.00
2024-05-09T02:21:16.525Z,0.00
2024-05-09T02:22:16.461Z,0.00
2024-05-09T02:23:16.604Z,0.00
2024-05-09T02:24:16.576Z,0.00
2024-05-09T02:25:16.598Z,0.00
2024-05-09T02:26:16.744Z,0.00
2024-05-09T02:27:16.703Z,0.00
2024-05-09T02:28:16.680Z,0.00
2024-05-09T02:29:16.782Z,0.00
2024-05-09T02:30:25.821Z,0.00
2024-05-09T02:31:16.803Z,0.00
2024-05-09T02:32:16.928Z,0.00
2024-05-09T02:33:16.963Z,0.00
2024-05-09T02:34:17.040Z,0.00
2024-05-09T02:35:16.990Z,0.00
2024-05-09T02:36:17.002Z,0.00
2024-05-09T02:37:17.012Z,0.00
2024-05-09T02:38:17.267Z,0.00
2024-05-09T02:39:17.065Z,0.00
2024-05-09T02:40:25.210Z,0.00
2024-05-09T02:41:17.201Z,0.00
2024-05-09T02:42:17.186Z,0.00
2024-05-09T02:43:17.205Z,0.00
2024-05-09T02:44:17.264Z,0.00
2024-05-09T02:45:17.261Z,0.00
2024-05-09T02:46:17.299Z,0.00
2024-05-09T02:47:17.409Z,0.00
2024-05-09T02:48:17.452Z,0.00
2024-05-09T02:49:17.540Z,0.00
2024-05-09T02:50:26.556Z,0.00
2024-05-09T02:51:17.513Z,0.00
2024-05-09T02:52:17.500Z,0.00
2024-05-09T02:53:17.587Z,0.00
2024-05-09T02:54:17.574Z,0.00
2024-05-09T02:55:17.594Z,0.00
2024-05-09T02:56:17.703Z,0.00
2024-05-09T02:57:17.682Z,0.00
2024-05-09T02:58:17.699Z,0.00
2024-05-09T02:59:17.768Z,0.00
2024-05-09T03:00:22.828Z,0.00
2024-05-09T03:01:17.895Z,0.00
2024-05-09T03:02:17.975Z,0.00
2024-05-09T03:03:18.110Z,0.00
2024-05-09T03:04:17.946Z,0.00
2024-05-09T03:05:17.982Z,0.00
2024-05-09T03:06:17.964Z,0.00
2024-05-09T03:07:20.068Z,0.00
2024-05-09T03:08:18.298Z,0.00
2024-05-09T03:09:18.067Z,0.00
2024-05-09T03:10:22.566Z,0.00
2024-05-09T03:11:18.279Z,0.00
2024-05-09T03:12:18.279Z,0.00
2024-05-09T03:13:18.202Z,0.00
2024-05-09T03:14:18.355Z,0.00
2024-05-09T03:15:18.261Z,0.00
2024-05-09T03:16:18.306Z,0.00
2024-05-09T03:17:18.478Z,0.00
2024-05-09T03:18:18.454Z,0.00
2024-05-09T03:19:18.609Z,0.00
2024-05-09T03:20:23.773Z,0.00
2024-05-09T03:21:18.499Z,0.00
2024-05-09T03:22:18.494Z,0.00
2024-05-09T03:23:18.559Z,0.00
2024-05-09T03:24:18.567Z,0.00
2024-05-09T03:25:18.607Z,0.00
2024-05-09T03:26:18.715Z,0.00
2024-05-09T03:27:18.670Z,0.00
2024-05-09T03:28:18.719Z,0.00
2024-05-09T03:29:18.754Z,0.00
2024-05-09T03:30:26.130Z,0.00
2024-05-09T03:31:18.816Z,0.00
2024-05-09T03:32:19.027Z,0.00
2024-05-09T03:33:20.280Z,0.00
2024-05-09T03:34:18.959Z,0.00
2024-05-09T03:35:19.007Z,0.00
2024-05-09T03:36:18.943Z,0.00
2024-05-09T03:37:18.992Z,0.00
2024-05-09T03:38:19.084Z,0.00
2024-05-09T03:39:19.075Z,0.00
2024-05-09T03:40:23.615Z,0.00
2024-05-09T03:41:19.320Z,0.00
2024-05-09T03:42:19.172Z,0.00
2024-05-09T03:43:19.357Z,0.00
2024-05-09T03:44:19.278Z,0.00
2024-05-09T03:45:19.267Z,0.00
2024-05-09T03:46:19.330Z,0.00
2024-05-09T03:47:19.496Z,0.00
2024-05-09T03:48:19.704Z,0.00
2024-05-09T03:49:19.676Z,0.00
2024-05-09T03:50:26.290Z,0.00
2024-05-09T03:51:19.544Z,0.00
2024-05-09T03:52:19.503Z,0.00
2024-05-09T03:53:19.593Z,0.00
2024-05-09T03:54:19.563Z,0.00
2024-05-09T03:55:19.613Z,0.00
2024-05-09T03:56:19.698Z,0.00
2024-05-09T03:57:19.675Z,0.00
2024-05-09T03:58:19.747Z,0.00
2024-05-09T03:59:19.746Z,0.00
2024-05-09T04:00:30.044Z,0.00
2024-05-09T04:01:19.837Z,0.00
2024-05-09T04:02:19.899Z,0.00
2024-05-09T04:03:20.345Z,0.00
2024-05-09T04:04:19.962Z,0.00
2024-05-09T04:05:20.006Z,0.00
2024-05-09T04:06:20.021Z,0.00
2024-05-09T04:07:19.992Z,0.00
2024-05-09T04:08:20.249Z,0.00
2024-05-09T04:09:20.098Z,0.00
2024-05-09T04:10:27.751Z,0.00
2024-05-09T04:11:20.232Z,0.00
2024-05-09T04:12:20.273Z,0.00
2024-05-09T04:13:20.203Z,0.00
2024-05-09T04:14:20.338Z,0.00
2024-05-09T04:15:20.275Z,0.00
2024-05-09T04:16:20.322Z,0.00
2024-05-09T04:17:20.447Z,0.00
2024-05-09T04:18:20.452Z,0.00
2024-05-09T04:19:20.566Z,0.00
2024-05-09T04:20:29.077Z,0.00
2024-05-09T04:21:20.459Z,0.00
2024-05-09T04:22:20.496Z,0.00
2024-05-09T04:23:20.582Z,0.00
2024-05-09T04:24:20.519Z,0.00
2024-05-09T04:25:20.635Z,0.00
2024-05-09T04:26:20.618Z,0.00
2024-05-09T04:27:20.655Z,0.00
2024-05-09T04:28:20.706Z,0.00
2024-05-09T04:29:20.818Z,0.00
2024-05-09T04:30:26.507Z,0.00
2024-05-09T04:31:20.795Z,0.00
2024-05-09T04:32:20.954Z,0.00
2024-05-09T04:33:21.109Z,0.00
2024-05-09T04:34:21.024Z,0.00
2024-05-09T04:35:21.059Z,0.00
2024-05-09T04:36:20.962Z,0.00
2024-05-09T04:37:21.016Z,0.00
2024-05-09T04:38:21.053Z,0.00
2024-05-09T04:39:21.073Z,0.00
2024-05-09T04:40:28.520Z,0.00
2024-05-09T04:41:21.144Z,0.00
2024-05-09T04:42:21.176Z,0.00
2024-05-09T04:43:21.185Z,0.00
2024-05-09T04:44:21.284Z,0.00
2024-05-09T04:45:21.276Z,0.00
2024-05-09T04:46:21.290Z,0.00
2024-05-09T04:47:21.614Z,0.00
2024-05-09T04:48:21.826Z,0.00
2024-05-09T04:49:21.714Z,0.00
2024-05-09T04:50:29.982Z,0.00
2024-05-09T04:51:21.457Z,0.00
2024-05-09T04:52:21.492Z,0.00
2024-05-09T04:53:21.581Z,0.00
2024-05-09T04:54:33.441Z,0.00
2024-05-09T04:55:21.597Z,0.00
2024-05-09T04:56:21.674Z,0.00
2024-05-09T04:57:21.662Z,0.00
2024-05-09T04:58:21.688Z,0.00
2024-05-09T04:59:21.905Z,0.00
2024-05-09T05:00:28.907Z,0.00
2024-05-09T05:01:21.784Z,0.00
2024-05-09T05:02:21.996Z,0.00
2024-05-09T05:03:22.237Z,0.00
2024-05-09T05:04:21.949Z,0.00
2024-05-09T05:05:21.956Z,0.00
2024-05-09T05:06:21.976Z,0.00
2024-05-09T05:07:22.031Z,0.00
2024-05-09T05:08:22.097Z,0.00
2024-05-09T05:09:22.067Z,0.00
2024-05-09T05:10:29.512Z,0.00
2024-05-09T05:11:22.260Z,0.00
2024-05-09T05:12:22.303Z,0.00
2024-05-09T05:13:23.405Z,0.00
2024-05-09T05:14:22.294Z,0.00
2024-05-09T05:15:22.269Z,0.00
2024-05-09T05:16:22.283Z,0.00
2024-05-09T05:17:22.378Z,0.00
2024-05-09T05:18:22.525Z,0.00
2024-05-09T05:19:22.501Z,0.00
2024-05-09T05:20:30.393Z,0.00
2024-05-09T05:21:22.631Z,0.00
2024-05-09T05:22:22.458Z,0.00
2024-05-09T05:23:22.632Z,0.00
2024-05-09T05:24:22.567Z,0.00
2024-05-09T05:25:22.585Z,0.00
2024-05-09T05:26:22.663Z,0.00
2024-05-09T05:27:22.656Z,0.00
2024-05-09T05:28:22.698Z,0.00
2024-05-09T05:29:22.794Z,0.00
2024-05-09T05:30:28.781Z,0.00
2024-05-09T05:31:22.961Z,0.00
2024-05-09T05:32:22.951Z,0.00
2024-05-09T05:33:23.590Z,0.00
2024-05-09T05:34:22.890Z,0.00
2024-05-09T05:35:23.017Z,0.00
2024-05-09T05:36:22.969Z,0.00
2024-05-09T05:37:23.012Z,0.00
2024-05-09T05:38:26.261Z,0.00
2024-05-09T05:39:23.054Z,0.00
2024-05-09T05:40:32.153Z,0.00
2024-05-09T05:41:23.224Z,0.00
2024-05-09T05:42:23.166Z,0.00
2024-05-09T05:43:23.192Z,0.00
2024-05-09T05:44:23.279Z,0.00
2024-05-09T05:45:23.264Z,0.00
2024-05-09T05:46:23.257Z,0.00
2024-05-09T05:47:23.401Z,0.00
2024-05-09T05:48:23.631Z,0.00
2024-05-09T05:49:23.561Z,0.00
2024-05-09T05:50:28.100Z,0.00
2024-05-09T05:51:23.534Z,0.00
2024-05-09T05:52:23.527Z,0.00
2024-05-09T05:53:23.578Z,0.00
2024-05-09T05:54:23.575Z,0.00
2024-05-09T05:55:23.590Z,0.00
2024-05-09T05:56:23.721Z,0.00
2024-05-09T05:57:23.656Z,0.00
2024-05-09T05:58:23.685Z,0.00
2024-05-09T05:59:23.775Z,0.00
2024-05-09T06:00:29.518Z,0.00
2024-05-09T06:01:23.827Z,0.00
2024-05-09T06:02:23.862Z,0.00
2024-05-09T06:03:23.885Z,0.00
2024-05-09T06:04:23.933Z,0.00
2024-05-09T06:05:25.997Z,0.00
2024-05-09T06:06:23.962Z,0.00
2024-05-09T06:07:24.034Z,0.00
2024-05-09T06:08:26.196Z,0.00
2024-05-09T06:09:24.059Z,0.00
2024-05-09T06:10:26.481Z,0.00
2024-05-09T06:11:24.196Z,0.00
2024-05-09T06:12:24.307Z,0.00
2024-05-09T06:13:24.194Z,0.00
2024-05-09T06:14:24.361Z,0.00
2024-05-09T06:15:24.253Z,0.00
2024-05-09T06:16:24.316Z,0.00
2024-05-09T06:17:24.600Z,0.00
2024-05-09T06:18:24.740Z,0.00
2024-05-09T06:19:24.664Z,0.00
2024-05-09T06:20:33.978Z,0.00
2024-05-09T06:21:24.502Z,0.00
2024-05-09T06:22:24.515Z,0.00
2024-05-09T06:23:24.588Z,0.00
2024-05-09T06:24:24.570Z,0.00
2024-05-09T06:25:24.594Z,0.00
2024-05-09T06:26:24.633Z,0.00
2024-05-09T06:27:24.652Z,0.00
2024-05-09T06:28:24.695Z,0.00
2024-05-09T06:29:24.740Z,0.00
2024-05-09T06:30:30.427Z,0.00
2024-05-09T06:31:24.800Z,0.00
2024-05-09T06:32:25.061Z,0.00
2024-05-09T06:33:25.105Z,0.00
2024-05-09T06:34:25.089Z,0.00
2024-05-09T06:35:24.970Z,0.00
2024-05-09T06:36:24.949Z,0.00
2024-05-09T06:37:24.978Z,0.00
2024-05-09T06:38:25.068Z,0.00
2024-05-09T06:39:25.092Z,0.00
2024-05-09T06:40:29.748Z,0.00
2024-05-09T06:41:25.168Z,0.00
2024-05-09T06:42:25.147Z,0.00
2024-05-09T06:43:25.189Z,0.00
2024-05-09T06:44:25.265Z,0.00
2024-05-09T06:45:25.291Z,0.00
2024-05-09T06:46:25.288Z,0.00
2024-05-09T06:47:25.464Z,0.00
2024-05-09T06:48:25.456Z,0.00
2024-05-09T06:49:25.532Z,0.00
2024-05-09T06:50:28.374Z,0.00
2024-05-09T06:51:25.495Z,0.00
2024-05-09T06:52:25.485Z,0.00
2024-05-09T06:53:25.566Z,0.00
2024-05-09T06:54:25.568Z,0.00
2024-05-09T06:55:25.591Z,0.00
2024-05-09T06:56:25.708Z,0.00
2024-05-09T06:57:25.648Z,0.00
2024-05-09T06:58:25.925Z,0.00
2024-05-09T06:59:25.792Z,0.00
2024-05-09T07:00:34.565Z,0.00
2024-05-09T07:01:25.840Z,0.00
2024-05-09T07:02:25.864Z,0.00
2024-05-09T07:03:25.967Z,0.00
2024-05-09T07:04:26.042Z,0.00
2024-05-09T07:05:26.182Z,0.00
2024-05-09T07:06:25.955Z,0.00
2024-05-09T07:07:25.989Z,0.00
2024-05-09T07:08:26.034Z,0.00
2024-05-09T07:09:26.059Z,0.00
2024-05-09T07:10:32.790Z,0.00
2024-05-09T07:11:26.276Z,0.00
2024-05-09T07:12:26.378Z,0.00
2024-05-09T07:13:26.179Z,0.00
2024-05-09T07:14:26.318Z,0.00
2024-05-09T07:15:26.249Z,0.00
2024-05-09T07:16:26.287Z,0.00
2024-05-09T07:17:26.481Z,0.00
2024-05-09T07:18:26.627Z,0.00
2024-05-09T07:19:26.453Z,0.00
2024-05-09T07:20:34.024Z,0.00
2024-05-09T07:21:26.601Z,0.00
2024-05-09T07:22:26.480Z,0.00
2024-05-09T07:23:26.593Z,0.00
2024-05-09T07:24:26.550Z,0.00
2024-05-09T07:25:26.579Z,0.00
2024-05-09T07:26:26.651Z,0.00
2024-05-09T07:27:26.652Z,0.00
2024-05-09T07:28:26.698Z,0.00
2024-05-09T07:29:26.887Z,0.00
2024-05-09T07:30:32.885Z,0.00
2024-05-09T07:31:26.791Z,0.00
2024-05-09T07:32:27.200Z,0.00
2024-05-09T07:33:27.255Z,0.00
2024-05-09T07:34:27.002Z,0.00
2024-05-09T07:35:27.257Z,0.00
2024-05-09T07:36:26.984Z,0.00
2024-05-09T07:37:26.982Z,0.00
2024-05-09T07:38:27.101Z,0.00
2024-05-09T07:39:27.071Z,0.00
2024-05-09T07:40:32.895Z,0.00
2024-05-09T07:41:27.245Z,0.00
2024-05-09T07:42:27.175Z,0.00
2024-05-09T07:43:27.228Z,0.00
2024-05-09T07:44:27.302Z,0.00
2024-05-09T07:45:44.943Z,0.00
2024-05-09T07:47:14.602Z,0.00
2024-05-09T07:50:00.309Z,0.00
2024-05-09T07:53:39.756Z,0.00
2024-05-09T07:54:27.705Z,0.00
2024-05-09T07:55:27.981Z,0.00
2024-05-09T07:56:28.113Z,0.00
2024-05-09T07:57:27.699Z,0.00
2024-05-09T07:58:28.006Z,0.00
2024-05-09T07:59:27.722Z,0.00
2024-05-09T08:00:31.475Z,0.00
2024-05-09T08:01:27.943Z,0.00
2024-05-09T08:02:27.994Z,0.00
2024-05-09T08:03:28.091Z,0.00
2024-05-09T08:04:27.988Z,0.00
2024-05-09T08:05:28.205Z,0.00
2024-05-09T08:06:28.063Z,0.00
2024-05-09T08:07:28.011Z,0.00
2024-05-09T08:08:28.026Z,0.00
2024-05-09T08:09:28.060Z,0.00
2024-05-09T08:10:29.222Z,0.00
2024-05-09T08:11:28.160Z,0.00
2024-05-09T08:12:28.231Z,0.00
2024-05-09T08:13:28.202Z,0.00
2024-05-09T08:14:28.239Z,0.00
2024-05-09T08:15:28.479Z,0.00
2024-05-09T08:16:28.416Z,0.00
2024-05-09T08:17:28.454Z,0.00
2024-05-09T08:18:28.588Z,0.00
2024-05-09T08:19:28.440Z,0.00
2024-05-09T08:20:33.469Z,0.00
2024-05-09T08:21:28.495Z,0.00
2024-05-09T08:22:28.487Z,0.00
2024-05-09T08:23:28.561Z,0.00
2024-05-09T08:24:28.638Z,0.00
2024-05-09T08:25:28.631Z,0.00
2024-05-09T08:26:28.630Z,0.00
2024-05-09T08:27:28.726Z,0.00
2024-05-09T08:28:28.718Z,0.00
2024-05-09T08:29:28.729Z,0.00
2024-05-09T08:30:33.381Z,0.00
2024-05-09T08:31:28.852Z,0.00
2024-05-09T08:32:28.900Z,0.00
2024-05-09T08:33:29.037Z,0.00
2024-05-09T08:34:29.024Z,0.00
2024-05-09T08:35:28.918Z,0.00
2024-05-09T08:36:28.995Z,0.00
2024-05-09T08:37:32.856Z,0.00
2024-05-09T08:38:29.031Z,0.00
2024-05-09T08:39:29.114Z,0.00
2024-05-09T08:40:34.451Z,0.00
2024-05-09T08:41:29.111Z,0.00
2024-05-09T08:42:29.199Z,0.00
2024-05-09T08:43:29.273Z,0.00
2024-05-09T08:44:29.222Z,0.00
2024-05-09T08:45:29.304Z,0.00
2024-05-09T08:46:29.553Z,0.00
2024-05-09T08:47:29.436Z,0.00
2024-05-09T08:48:29.804Z,0.00
2024-05-09T08:49:29.638Z,0.00
2024-05-09T08:50:36.562Z,0.00
2024-05-09T08:51:29.638Z,0.00
2024-05-09T08:52:29.477Z,0.00
2024-05-09T08:53:29.527Z,0.00
2024-05-09T08:54:29.579Z,0.00
2024-05-09T08:55:29.582Z,0.00
2024-05-09T08:56:29.623Z,0.00
2024-05-09T08:57:29.689Z,0.00
2024-05-09T08:58:29.682Z,0.00
2024-05-09T08:59:29.704Z,0.00
2024-05-09T09:00:36.296Z,0.00
2024-05-09T09:01:29.847Z,0.00
2024-05-09T09:02:29.921Z,0.00
2024-05-09T09:03:30.199Z,0.00
2024-05-09T09:04:30.162Z,0.00
2024-05-09T09:05:30.064Z,0.00
2024-05-09T09:06:29.985Z,0.00
2024-05-09T09:07:30.156Z,0.00
2024-05-09T09:08:30.019Z,0.00
2024-05-09T09:09:30.142Z,0.00
2024-05-09T09:10:32.353Z,0.00
2024-05-09T09:11:30.135Z,0.00
2024-05-09T09:12:30.187Z,0.00
2024-05-09T09:13:30.174Z,0.00
2024-05-09T09:14:30.217Z,0.00
2024-05-09T09:15:30.338Z,0.00
2024-05-09T09:16:30.292Z,0.00
2024-05-09T09:17:30.373Z,0.00
2024-05-09T09:18:30.935Z,0.00
2024-05-09T09:19:30.419Z,0.00
2024-05-09T09:20:36.361Z,0.00
2024-05-09T09:21:30.469Z,0.00
2024-05-09T09:22:30.479Z,0.00
2024-05-09T09:23:30.860Z,0.00
2024-05-09T09:24:30.560Z,0.00
2024-05-09T09:25:30.614Z,0.00
2024-05-09T09:26:30.608Z,0.00
2024-05-09T09:27:30.693Z,0.00
2024-05-09T09:28:30.683Z,0.00
2024-05-09T09:29:30.702Z,0.00
2024-05-09T09:30:36.520Z,0.00
2024-05-09T09:31:31.035Z,0.00
2024-05-09T09:32:30.832Z,0.00
2024-05-09T09:33:30.984Z,0.00
2024-05-09T09:34:31.436Z,0.00
2024-05-09T09:35:30.926Z,0.00
2024-05-09T09:36:31.074Z,0.00
2024-05-09T09:37:30.990Z,0.00
2024-05-09T09:38:31.027Z,0.00
2024-05-09T09:39:31.148Z,0.00
2024-05-09T09:40:33.039Z,0.00
2024-05-09T09:41:31.118Z,0.00
2024-05-09T09:42:31.174Z,0.00
2024-05-09T09:43:31.188Z,0.00
2024-05-09T09:44:31.218Z,0.00
2024-05-09T09:45:31.296Z,0.00
2024-05-09T09:46:31.418Z,0.00
2024-05-09T09:47:31.535Z,0.00
2024-05-09T09:48:32.523Z,0.00
2024-05-09T09:49:31.422Z,0.00
2024-05-09T09:50:34.564Z,0.00
2024-05-09T09:51:31.495Z,0.00
2024-05-09T09:52:31.564Z,0.00
2024-05-09T09:53:31.517Z,0.00
2024-05-09T09:54:31.555Z,0.00
2024-05-09T09:55:31.597Z,0.00
2024-05-09T09:56:31.618Z,0.00
2024-05-09T09:57:31.701Z,0.00
2024-05-09T09:58:31.850Z,0.00
2024-05-09T09:59:31.735Z,0.00
2024-05-09T10:00:33.520Z,0.00
2024-05-09T10:01:31.889Z,0.00
2024-05-09T10:02:32.033Z,0.00
2024-05-09T10:03:31.990Z,0.00
2024-05-09T10:04:31.919Z,0.00
2024-05-09T10:05:32.142Z,0.00
2024-05-09T10:06:31.964Z,0.00
2024-05-09T10:07:31.932Z,0.00
2024-05-09T10:08:32.062Z,0.00
2024-05-09T10:09:32.125Z,0.00
2024-05-09T10:10:33.233Z,0.00
2024-05-09T10:11:34.872Z,0.00
2024-05-09T10:12:32.237Z,0.00
2024-05-09T10:13:32.253Z,0.00
2024-05-09T10:14:32.223Z,0.00
2024-05-09T10:15:32.288Z,0.00
2024-05-09T10:16:32.440Z,0.00
2024-05-09T10:17:32.380Z,0.00
2024-05-09T10:18:34.209Z,0.00
2024-05-09T10:19:32.458Z,0.00
2024-05-09T10:20:33.033Z,0.00
2024-05-09T10:21:32.509Z,0.00
2024-05-09T10:22:32.515Z,0.00
2024-05-09T10:23:32.762Z,0.00
2024-05-09T10:24:32.631Z,0.00
2024-05-09T10:25:32.694Z,0.00
2024-05-09T10:26:32.614Z,0.00
2024-05-09T10:27:32.782Z,0.00
2024-05-09T10:28:32.866Z,0.00
2024-05-09T10:29:32.728Z,0.00
2024-05-09T10:30:36.007Z,0.00
2024-05-09T10:31:32.888Z,0.00
2024-05-09T10:32:33.025Z,0.00
2024-05-09T10:33:32.986Z,0.00
2024-05-09T10:34:33.049Z,0.00
2024-05-09T10:35:32.921Z,0.00
2024-05-09T10:36:33.004Z,0.00
2024-05-09T10:37:33.043Z,0.00
2024-05-09T10:38:33.030Z,0.29
2024-05-09T10:39:33.075Z,0.00
2024-05-09T10:40:33.300Z,0.29
2024-05-09T10:41:33.141Z,0.10
2024-05-09T10:42:33.178Z,0.20
2024-05-09T10:43:33.178Z,0.00
2024-05-09T10:44:33.217Z,0.20
2024-05-09T10:45:33.292Z,0.00
2024-05-09T10:46:33.284Z,0.10
2024-05-09T10:47:33.419Z,0.10
2024-05-09T10:48:33.424Z,0.00
2024-05-09T10:49:33.477Z,0.00
2024-05-09T10:50:34.560Z,0.00
2024-05-09T10:51:33.478Z,0.10
2024-05-09T10:52:33.484Z,0.00
2024-05-09T10:53:33.508Z,0.00
2024-05-09T10:54:33.572Z,0.00
2024-05-09T10:55:33.645Z,0.00
2024-05-09T10:56:33.628Z,0.10
2024-05-09T10:57:33.735Z,0.10
2024-05-09T10:58:33.675Z,0.49
2024-05-09T10:59:33.703Z,0.10
2024-05-09T11:00:36.255Z,0.49
2024-05-09T11:01:33.847Z,0.39
2024-05-09T11:02:33.941Z,0.39
2024-05-09T11:03:34.192Z,0.39
2024-05-09T11:04:34.133Z,0.39
2024-05-09T11:05:34.158Z,0.39
2024-05-09T11:06:33.950Z,0.29
2024-05-09T11:07:34.097Z,0.39
2024-05-09T11:08:34.063Z,0.20
2024-05-09T11:09:34.107Z,0.20
2024-05-09T11:10:34.750Z,0.29
2024-05-09T11:11:34.174Z,0.20
2024-05-09T11:12:34.226Z,0.29
2024-05-09T11:13:34.213Z,0.29
2024-05-09T11:14:34.210Z,0.29
2024-05-09T11:15:34.311Z,0.29
2024-05-09T11:16:34.271Z,0.29
2024-05-09T11:17:34.363Z,0.20
2024-05-09T11:18:37.899Z,0.20
2024-05-09T11:19:34.445Z,0.29
2024-05-09T11:20:35.351Z,0.39
2024-05-09T11:21:34.483Z,0.39
2024-05-09T11:22:34.484Z,0.29
2024-05-09T11:23:34.500Z,0.39
2024-05-09T11:24:34.562Z,0.39
2024-05-09T11:25:34.564Z,0.39
2024-05-09T11:26:34.609Z,0.49
2024-05-09T11:27:34.691Z,0.39
2024-05-09T11:28:34.714Z,0.39
2024-05-09T11:29:34.749Z,0.39
2024-05-09T11:30:34.838Z,0.49
2024-05-09T11:31:34.858Z,0.39
2024-05-09T11:32:34.907Z,0.39
2024-05-09T11:33:34.929Z,0.39
2024-05-09T11:34:34.911Z,0.29
2024-05-09T11:35:34.905Z,0.29
2024-05-09T11:36:35.020Z,0.39
2024-05-09T11:37:37.165Z,0.29
2024-05-09T11:38:35.031Z,0.29
2024-05-09T11:39:35.067Z,0.29
2024-05-09T11:40:35.176Z,0.39
2024-05-09T11:41:35.116Z,0.29
2024-05-09T11:42:35.174Z,0.20
2024-05-09T11:43:35.262Z,0.20
2024-05-09T11:44:35.255Z,0.20
2024-05-09T11:45:35.291Z,0.29
2024-05-09T11:46:35.279Z,0.29
2024-05-09T11:47:35.395Z,0.20
2024-05-09T11:48:35.574Z,0.20
2024-05-09T11:49:35.460Z,0.29
2024-05-09T11:50:36.316Z,0.59
2024-05-09T11:51:35.513Z,0.59
2024-05-09T11:52:35.471Z,0.59
2024-05-09T11:53:35.506Z,0.49
2024-05-09T11:54:35.589Z,0.59
2024-05-09T11:55:35.653Z,0.59
2024-05-09T11:56:35.606Z,0.49
2024-05-09T11:57:35.690Z,0.59
2024-05-09T11:58:35.674Z,0.59
2024-05-09T11:59:35.736Z,0.59
2024-05-09T12:00:37.601Z,0.59
2024-05-09T12:01:35.874Z,0.59
2024-05-09T12:02:35.896Z,0.59
2024-05-09T12:03:35.896Z,0.59
2024-05-09T12:04:36.100Z,0.59
2024-05-09T12:05:36.068Z,0.59
2024-05-09T12:06:36.039Z,0.59
2024-05-09T12:07:35.985Z,0.59
2024-05-09T12:08:36.031Z,0.59
2024-05-09T12:09:36.054Z,0.39
2024-05-09T12:10:37.000Z,0.59
2024-05-09T12:11:36.230Z,0.68
2024-05-09T12:12:37.376Z,0.49
2024-05-09T12:13:36.267Z,0.59
2024-05-09T12:14:36.226Z,0.49
2024-05-09T12:15:37.746Z,0.49
2024-05-09T12:16:36.420Z,0.49
2024-05-09T12:17:36.426Z,0.49
2024-05-09T12:18:36.447Z,0.49
2024-05-09T12:19:36.444Z,0.49
2024-05-09T12:20:39.184Z,0.49
2024-05-09T12:21:36.454Z,0.59
2024-05-09T12:22:36.538Z,0.39
2024-05-09T12:23:36.527Z,0.39
2024-05-09T12:24:36.603Z,0.49
2024-05-09T12:25:36.567Z,0.39
2024-05-09T12:26:36.610Z,0.39
2024-05-09T12:27:36.715Z,0.39
2024-05-09T12:28:36.668Z,0.49
2024-05-09T12:29:38.815Z,0.68
2024-05-09T12:30:39.741Z,0.68
2024-05-09T12:31:36.834Z,0.78
2024-05-09T12:32:36.915Z,1.07
2024-05-09T12:33:36.952Z,0.68
2024-05-09T12:34:36.996Z,0.59
2024-05-09T12:35:36.949Z,0.78
2024-05-09T12:36:36.989Z,0.88
2024-05-09T12:37:37.868Z,0.68
2024-05-09T12:38:37.034Z,0.78
2024-05-09T12:39:37.055Z,0.68
2024-05-09T12:40:38.847Z,0.68
2024-05-09T12:41:37.160Z,0.68
2024-05-09T12:42:37.242Z,0.68
2024-05-09T12:43:37.243Z,0.68
2024-05-09T12:44:37.259Z,0.59
2024-05-09T12:45:37.713Z,0.68
2024-05-09T12:46:37.379Z,0.59
2024-05-09T12:47:37.461Z,0.39
2024-05-09T12:48:37.546Z,0.68
2024-05-09T12:49:37.575Z,0.88
2024-05-09T12:50:37.469Z,0.88
2024-05-09T12:51:37.501Z,0.98
2024-05-09T12:52:37.516Z,0.88
2024-05-09T12:53:37.514Z,0.88
2024-05-09T12:54:37.595Z,0.88
2024-05-09T12:55:44.690Z,0.88
2024-05-09T12:56:37.632Z,0.88
2024-05-09T12:57:37.682Z,0.98
2024-05-09T12:58:37.701Z,0.98
2024-05-09T12:59:37.723Z,0.98
2024-05-09T13:00:37.876Z,0.98
2024-05-09T13:01:37.882Z,0.78
2024-05-09T13:02:37.950Z,0.78
2024-05-09T13:03:38.046Z,0.78
2024-05-09T13:04:38.100Z,0.78
2024-05-09T13:05:38.059Z,0.78
2024-05-09T13:06:38.023Z,0.78
2024-05-09T13:07:37.972Z,0.78
2024-05-09T13:08:38.022Z,0.88
2024-05-09T13:09:38.101Z,0.78
2024-05-09T13:10:38.093Z,0.78
2024-05-09T13:11:38.205Z,0.78
2024-05-09T13:12:38.126Z,0.88
2024-05-09T13:13:38.183Z,0.78
2024-05-09T13:14:38.169Z,0.78
2024-05-09T13:15:38.375Z,0.68
2024-05-09T13:16:38.354Z,0.78
2024-05-09T13:17:38.402Z,0.98
2024-05-09T13:18:38.473Z,0.78
2024-05-09T13:19:38.385Z,1.07
2024-05-09T13:20:38.443Z,1.07
2024-05-09T13:21:38.483Z,0.88
2024-05-09T13:22:38.495Z,1.07
2024-05-09T13:23:38.508Z,1.17